Nord Glory — 3FIA5 — position and weather

sailwx.info

Track history (hours):
 
Tides and Currents Weather Stations Pressure Air Temp Water Temp Dewpoint Dewpoint Depression Visibility Wind Speed Wind Dir Waves Ship Positions

Nord Glory

Last reported at 2016-Dec-11 09:33 UTC. Time now 2016-Dec-11 10:10 UTC.
Position N 36°06' W 005°11'.

Length 190 m; draft 6.7 m.

Type: Cargo ship. MMSI: 354206000.

Date/timePositionNaut miles runAvg speedWind from/ knotsBaromVisibWave heightAir tempDewpointWater temp
2016-Dec-11 09:33N 36°06' W 005°11'6 5.6
2016-Dec-11 08:33N 36°11' W 005°08'1 0.9
2016-Dec-11 07:18N 36°11' W 005°07'2 1.1
2016-Dec-11 05:33N 36°10' W 005°05'4 4.4
2016-Dec-11 04:33N 36°07' W 005°02'10413.0
2016-Dec-10 20:33N 36°19' W 002°54'1814.5
2016-Dec-10 19:20N 36°22' W 002°32'1114.4
2016-Dec-10 18:32N 36°24' W 002°18'1414.3
2016-Dec-10 17:33N 36°26' W 002°01'51513.9
2016-Dec-09 04:33N 38°30' E 008°29'1614.1
2016-Dec-09 03:27N 38°35' E 008°48'1314.4
2016-Dec-09 02:33N 38°40' E 009°03'1414.4
2016-Dec-09 01:32N 38°45' E 009°21'1414.3
2016-Dec-09 00:32N 38°50' E 009°38'  
2016-Dec-02 19:34N 42°35' E 009°48'2914.6
2016-Dec-02 17:33N 43°03' E 009°34'1515.0
2016-Dec-02 16:34N 43°14' E 009°21'1514.6
2016-Dec-02 15:33N 43°25' E 009°07'1414.1
2016-Dec-02 14:33N 43°37' E 008°56'1413.8
2016-Dec-02 13:34N 43°49' E 008°48'1414.1
2016-Dec-02 12:34N 44°02' E 008°41'1413.7
2016-Dec-02 11:33N 44°15' E 008°34'5 4.7
2016-Dec-02 10:30N 44°19' E 008°30'0 0.0
2016-Dec-02 09:28N 44°19' E 008°30'0 0.0
2016-Dec-02 08:28N 44°19' E 008°30'0 0.0
2016-Dec-02 07:28N 44°19' E 008°30'0 0.0
2016-Dec-02 06:28N 44°19' E 008°30'0 0.0
2016-Dec-02 05:28N 44°19' E 008°30'0 0.0
2016-Dec-02 04:31N 44°19' E 008°30'0 0.0
2016-Dec-02 03:28N 44°19' E 008°30'0 0.0
2016-Dec-02 02:31N 44°19' E 008°30'0 0.0
2016-Dec-02 01:28N 44°19' E 008°30'0 0.0
2016-Dec-02 00:31N 44°19' E 008°30'0 0.0
2016-Dec-01 23:28N 44°19' E 008°30'0 0.0
2016-Dec-01 22:28N 44°19' E 008°30'0 0.0
2016-Dec-01 21:28N 44°19' E 008°30'0 0.0
2016-Dec-01 20:31N 44°19' E 008°30'0 0.0
2016-Dec-01 19:28N 44°19' E 008°30'0 0.0
2016-Dec-01 18:31N 44°19' E 008°30'0 0.0
2016-Dec-01 17:31N 44°19' E 008°30'0 0.0
2016-Dec-01 16:28N 44°19' E 008°30'0 0.0
2016-Dec-01 15:28N 44°19' E 008°30'0 0.0
2016-Dec-01 14:28N 44°19' E 008°30'0 0.0
2016-Dec-01 13:31N 44°19' E 008°30'0 0.0
2016-Dec-01 12:28N 44°19' E 008°30'0 0.0
2016-Dec-01 11:28N 44°19' E 008°30'0 0.0
2016-Dec-01 10:22N 44°19' E 008°30'  
Track history (hours):
 
Tides and Currents Weather Stations Pressure Air Temp Water Temp Dewpoint Dewpoint Depression Visibility Wind Speed Wind Dir Waves Ship Positions

Nord Glory

Last reported at 2016-Dec-11 09:33 UTC. Time now 2016-Dec-11 10:10 UTC.
Position N 36°06' W 005°11'.

Length 190 m; draft 6.7 m.

Type: Cargo ship. MMSI: 354206000.

Date/timePositionNaut miles runAvg speedWind from/ knotsBaromVisibWave heightAir tempDewpointWater temp
2016-Dec-11 09:33N 36°06' W 005°11'6 5.6
2016-Dec-11 08:33N 36°11' W 005°08'1 0.9
2016-Dec-11 07:18N 36°11' W 005°07'2 1.1
2016-Dec-11 05:33N 36°10' W 005°05'4 4.4
2016-Dec-11 04:33N 36°07' W 005°02'10413.0
2016-Dec-10 20:33N 36°19' W 002°54'1814.5
2016-Dec-10 19:20N 36°22' W 002°32'1114.4
2016-Dec-10 18:32N 36°24' W 002°18'1414.3
2016-Dec-10 17:33N 36°26' W 002°01'51513.9
2016-Dec-09 04:33N 38°30' E 008°29'1614.1
2016-Dec-09 03:27N 38°35' E 008°48'1314.4
2016-Dec-09 02:33N 38°40' E 009°03'1414.4
2016-Dec-09 01:32N 38°45' E 009°21'1414.3
2016-Dec-09 00:32N 38°50' E 009°38'  
2016-Dec-02 19:34N 42°35' E 009°48'2914.6
2016-Dec-02 17:33N 43°03' E 009°34'1515.0
2016-Dec-02 16:34N 43°14' E 009°21'1514.6
2016-Dec-02 15:33N 43°25' E 009°07'1414.1
2016-Dec-02 14:33N 43°37' E 008°56'1413.8
2016-Dec-02 13:34N 43°49' E 008°48'1414.1
2016-Dec-02 12:34N 44°02' E 008°41'1413.7
2016-Dec-02 11:33N 44°15' E 008°34'5 4.7
2016-Dec-02 10:30N 44°19' E 008°30'0 0.0
2016-Dec-02 09:28N 44°19' E 008°30'0 0.0
2016-Dec-02 08:28N 44°19' E 008°30'0 0.0
2016-Dec-02 07:28N 44°19' E 008°30'0 0.0
2016-Dec-02 06:28N 44°19' E 008°30'0 0.0
2016-Dec-02 05:28N 44°19' E 008°30'0 0.0
2016-Dec-02 04:31N 44°19' E 008°30'0 0.0
2016-Dec-02 03:28N 44°19' E 008°30'0 0.0
2016-Dec-02 02:31N 44°19' E 008°30'0 0.0
2016-Dec-02 01:28N 44°19' E 008°30'0 0.0
2016-Dec-02 00:31N 44°19' E 008°30'0 0.0
2016-Dec-01 23:28N 44°19' E 008°30'0 0.0
2016-Dec-01 22:28N 44°19' E 008°30'0 0.0
2016-Dec-01 21:28N 44°19' E 008°30'0 0.0
2016-Dec-01 20:31N 44°19' E 008°30'0 0.0
2016-Dec-01 19:28N 44°19' E 008°30'0 0.0
2016-Dec-01 18:31N 44°19' E 008°30'0 0.0
2016-Dec-01 17:31N 44°19' E 008°30'0 0.0
2016-Dec-01 16:28N 44°19' E 008°30'0 0.0
2016-Dec-01 15:28N 44°19' E 008°30'0 0.0
2016-Dec-01 14:28N 44°19' E 008°30'0 0.0
2016-Dec-01 13:31N 44°19' E 008°30'0 0.0
2016-Dec-01 12:28N 44°19' E 008°30'0 0.0
2016-Dec-01 11:28N 44°19' E 008°30'0 0.0
2016-Dec-01 10:22N 44°19' E 008°30'  

Dump ship's entire track history